createdAt,value
2022-08-07T00:02:37.292Z,100308.84
2022-08-07T00:04:16.365Z,100309.70
2022-08-07T00:06:51.944Z,100311.64
2022-08-07T00:09:29.126Z,100307.40
2022-08-07T00:12:03.220Z,100306.67
2022-08-07T00:14:32.185Z,100310.85
2022-08-07T00:17:03.032Z,100309.63
2022-08-07T00:19:59.594Z,100310.20
2022-08-07T00:22:24.729Z,100309.85
2022-08-07T00:25:11.122Z,100315.38
2022-08-07T00:27:53.142Z,100319.61
2022-08-07T00:30:28.207Z,100317.82
2022-08-07T00:32:59.311Z,100315.63
2022-08-07T00:35:29.910Z,100314.77
2022-08-07T00:38:00.022Z,100313.69
2022-08-07T00:40:39.193Z,100314.56
2022-08-07T00:44:00.694Z,100317.85
2022-08-07T00:46:02.899Z,100315.98
2022-08-07T00:48:32.387Z,100315.50
2022-08-07T00:51:03.149Z,100312.02
2022-08-07T00:53:39.075Z,100317.38
2022-08-07T00:56:19.456Z,100317.53
2022-08-07T00:58:49.929Z,100317.31
2022-08-07T01:01:20.736Z,100318.53
2022-08-07T01:03:57.060Z,100323.23
2022-08-07T01:06:29.671Z,100329.05
2022-08-07T01:09:01.282Z,100330.79
2022-08-07T01:12:08.980Z,100334.36
2022-08-07T01:14:28.462Z,100343.25
2022-08-07T01:16:58.699Z,100343.77
2022-08-07T01:19:32.169Z,100345.52
2022-08-07T01:22:03.415Z,100339.23
2022-08-07T01:24:42.199Z,100339.96
2022-08-07T01:27:29.503Z,100336.85
2022-08-07T01:30:02.502Z,100334.78
2022-08-07T01:32:32.284Z,100341.59
2022-08-07T01:35:03.171Z,100347.02
2022-08-07T01:37:34.027Z,100347.67
2022-08-07T01:40:07.117Z,100347.42
2022-08-07T01:42:57.422Z,100334.67
2022-08-07T01:45:37.098Z,100341.52
2022-08-07T01:48:20.015Z,100350.63
2022-08-07T01:51:24.483Z,100350.35
2022-08-07T01:54:09.533Z,100346.52
2022-08-07T01:58:01.324Z,100346.32
2022-08-07T02:00:28.911Z,100346.34
2022-08-07T02:03:12.519Z,100348.22
2022-08-07T02:05:59.615Z,100352.06
2022-08-07T02:08:38.236Z,100353.90
2022-08-07T02:11:10.634Z,100348.54
2022-08-07T02:14:03.044Z,100357.91
2022-08-07T02:16:37.585Z,100361.40
2022-08-07T02:20:04.298Z,100361.22
2022-08-07T02:22:02.742Z,100360.83
2022-08-07T02:24:32.099Z,100368.36
2022-08-07T02:27:03.453Z,100365.35
2022-08-07T02:29:43.531Z,100361.39
2022-08-07T02:32:23.432Z,100366.54
2022-08-07T02:34:58.507Z,100367.77
2022-08-07T02:37:36.155Z,100368.60
2022-08-07T02:40:30.659Z,100364.88
2022-08-07T02:43:07.935Z,100370.52
2022-08-07T02:45:58.876Z,100372.48
2022-08-07T02:48:31.591Z,100378.70
2022-08-07T02:51:29.005Z,100380.16
2022-08-07T02:54:00.507Z,100383.54
2022-08-07T02:56:33.488Z,100384.73
2022-08-07T02:59:06.015Z,100385.44
2022-08-07T03:01:40.032Z,100386.38
2022-08-07T03:04:16.489Z,100389.77
2022-08-07T03:06:48.157Z,100392.08
2022-08-07T03:09:43.268Z,100397.52
2022-08-07T03:12:11.580Z,100396.42
2022-08-07T03:14:52.822Z,100393.96
2022-08-07T03:17:22.250Z,100399.42
2022-08-07T03:19:56.535Z,100401.98
2022-08-07T03:22:30.464Z,100406.30
2022-08-07T03:25:01.699Z,100409.45
2022-08-07T03:28:09.034Z,100417.55
2022-08-07T03:30:27.228Z,100420.09
2022-08-07T03:32:59.566Z,100428.06
2022-08-07T03:35:43.899Z,100432.11
2022-08-07T03:38:29.927Z,100434.01
2022-08-07T03:41:03.456Z,100436.02
2022-08-07T03:43:33.672Z,100434.31
2022-08-07T03:46:10.404Z,100436.65
2022-08-07T03:49:02.903Z,100437.67
2022-08-07T03:51:47.746Z,100439.41
2022-08-07T03:54:36.279Z,100439.05
2022-08-07T03:58:32.483Z,100436.81
2022-08-07T04:00:04.411Z,100441.76
2022-08-07T04:02:47.494Z,100446.69
2022-08-07T04:05:40.800Z,100446.73
2022-08-07T04:08:21.095Z,100446.83
2022-08-07T04:10:54.741Z,100448.21
2022-08-07T04:14:10.457Z,100444.80
2022-08-07T04:16:37.459Z,100445.20
2022-08-07T04:19:12.623Z,100450.14
2022-08-07T04:21:47.925Z,100449.15
2022-08-07T04:24:34.230Z,100450.19
2022-08-07T04:27:20.266Z,100461.41
2022-08-07T04:30:01.418Z,100465.49
2022-08-07T04:32:36.891Z,100471.13
2022-08-07T04:35:11.198Z,100473.71
2022-08-07T04:38:01.117Z,100475.41
2022-08-07T04:40:32.150Z,100475.40
2022-08-07T04:43:03.577Z,100477.56
2022-08-07T04:46:00.264Z,100480.39
2022-08-07T04:49:01.657Z,100489.27
2022-08-07T04:51:52.931Z,100491.15
2022-08-07T04:54:32.135Z,100492.04
2022-08-07T04:58:25.649Z,100498.17
2022-08-07T05:00:32.257Z,100493.13
2022-08-07T05:04:00.606Z,100495.95
2022-08-07T05:06:51.237Z,100499.30
2022-08-07T05:09:45.360Z,100500.59
2022-08-07T05:12:30.351Z,100501.13
2022-08-07T05:15:23.223Z,100505.55
2022-08-07T05:18:08.501Z,100506.72
2022-08-07T05:20:44.023Z,100511.85
2022-08-07T05:23:29.096Z,100511.60
2022-08-07T05:26:13.201Z,100516.63
2022-08-07T05:28:53.376Z,100520.66
2022-08-07T05:31:38.491Z,100517.66
2022-08-07T05:34:13.819Z,100517.58
2022-08-07T05:36:54.643Z,100521.66
2022-08-07T05:40:16.880Z,100529.40
2022-08-07T05:42:34.492Z,100521.09
2022-08-07T05:45:14.159Z,100529.65
2022-08-07T05:48:01.570Z,100528.85
2022-08-07T05:50:39.333Z,100530.83
2022-08-07T05:54:12.941Z,100532.64
2022-08-07T05:56:06.096Z,100535.98
2022-08-07T05:58:41.692Z,100540.07
2022-08-07T06:01:26.536Z,100539.41
2022-08-07T06:04:08.865Z,100543.20
2022-08-07T06:06:46.042Z,100542.66
2022-08-07T06:09:17.646Z,100544.95
2022-08-07T06:11:49.092Z,100545.09
2022-08-07T06:14:20.705Z,100544.82
2022-08-07T06:16:55.811Z,100544.54
2022-08-07T06:19:52.298Z,100546.65
2022-08-07T06:22:23.856Z,100550.55
2022-08-07T06:25:06.185Z,100551.78
2022-08-07T06:27:59.768Z,100553.95
2022-08-07T06:30:35.710Z,100551.23
2022-08-07T06:33:16.209Z,100549.81
2022-08-07T06:36:12.815Z,100553.16
2022-08-07T06:38:58.716Z,100552.88
2022-08-07T06:42:01.094Z,100557.38
2022-08-07T06:44:40.991Z,100561.59
2022-08-07T06:47:15.268Z,100560.59
2022-08-07T06:49:51.794Z,100559.03
2022-08-07T06:52:35.597Z,100559.48
2022-08-07T06:55:33.772Z,100558.96
2022-08-07T06:58:04.916Z,100556.92
2022-08-07T07:00:44.727Z,100553.42
2022-08-07T07:03:14.520Z,100557.35
2022-08-07T07:06:04.669Z,100558.90
2022-08-07T07:08:39.829Z,100552.88
2022-08-07T07:12:06.882Z,100551.45
2022-08-07T07:14:08.466Z,100551.09
2022-08-07T07:16:49.637Z,100551.30
2022-08-07T07:19:56.198Z,100551.55
2022-08-07T07:22:36.139Z,100554.18
2022-08-07T07:26:32.254Z,100555.20
2022-08-07T07:28:42.775Z,100560.25
2022-08-07T07:31:39.888Z,100561.80
2022-08-07T07:34:20.085Z,100564.80
2022-08-07T07:36:53.845Z,100570.42
2022-08-07T07:39:25.762Z,100576.92
2022-08-07T07:42:17.651Z,100576.19
2022-08-07T07:44:53.616Z,100578.73
2022-08-07T07:47:28.774Z,100570.18
2022-08-07T07:50:33.285Z,100571.70
2022-08-07T07:52:50.209Z,100573.65
2022-08-07T07:55:21.554Z,100575.96
2022-08-07T07:57:58.191Z,100572.23
2022-08-07T08:00:34.050Z,100570.58
2022-08-07T08:03:16.876Z,100573.25
2022-08-07T08:06:03.463Z,100564.95
2022-08-07T08:08:37.108Z,100560.31
2022-08-07T08:11:16.489Z,100560.35
2022-08-07T08:13:54.365Z,100562.30
2022-08-07T08:16:39.493Z,100554.83
2022-08-07T08:20:16.091Z,100560.09
2022-08-07T08:22:32.727Z,100561.69
2022-08-07T08:25:41.805Z,100559.77
2022-08-07T08:28:24.120Z,100564.65
2022-08-07T08:31:15.885Z,100563.61
2022-08-07T08:33:55.523Z,100567.25
2022-08-07T08:36:30.879Z,100560.91
2022-08-07T08:39:05.450Z,100558.66
2022-08-07T08:41:58.965Z,100558.95
2022-08-07T08:44:48.119Z,100558.30
2022-08-07T08:47:52.733Z,100555.58
2022-08-07T08:50:39.640Z,100557.11
2022-08-07T08:53:29.461Z,100556.42
2022-08-07T08:56:10.759Z,100560.64
2022-08-07T08:58:58.104Z,100560.77
2022-08-07T09:01:43.671Z,100561.84
2022-08-07T09:04:58.447Z,100561.77
2022-08-07T09:07:57.497Z,100569.62
2022-08-07T09:10:44.248Z,100575.23
2022-08-07T09:13:43.936Z,100569.29
2022-08-07T09:16:49.017Z,100564.33
2022-08-07T09:19:59.319Z,100566.11
2022-08-07T09:24:32.048Z,100569.08
2022-08-07T09:26:39.732Z,100572.70
2022-08-07T09:30:03.471Z,100565.01
2022-08-07T09:33:05.652Z,100557.18
2022-08-07T09:36:06.359Z,100558.19
2022-08-07T09:39:11.412Z,100559.73
2022-08-07T09:42:23.057Z,100562.58
2022-08-07T09:47:27.561Z,100561.15
2022-08-07T09:48:30.053Z,100562.65
2022-08-07T09:52:09.953Z,100558.77
2022-08-07T09:54:29.294Z,100556.96
2022-08-07T09:57:28.103Z,100558.84
2022-08-07T10:00:14.778Z,100557.17
2022-08-07T10:03:08.266Z,100560.73
2022-08-07T10:06:09.020Z,100559.70
2022-08-07T10:09:34.194Z,100562.65
2022-08-07T10:12:26.358Z,100563.92
2022-08-07T10:15:44.090Z,100560.60
2022-08-07T10:18:42.371Z,100566.29
2022-08-07T10:22:14.650Z,100565.33
2022-08-07T10:25:04.300Z,100568.66
2022-08-07T10:27:57.190Z,100571.11
2022-08-07T10:30:43.884Z,100572.95
2022-08-07T10:34:06.172Z,100577.55
2022-08-07T10:37:26.518Z,100570.48
2022-08-07T10:40:23.796Z,100575.71
2022-08-07T10:43:34.675Z,100572.18
2022-08-07T10:46:36.374Z,100566.77
2022-08-07T10:49:49.815Z,100559.98
2022-08-07T10:52:53.410Z,100560.23
2022-08-07T10:55:38.538Z,100564.30
2022-08-07T10:58:59.890Z,100560.84
2022-08-07T11:01:51.897Z,100559.98
2022-08-07T11:05:10.540Z,100555.16
2022-08-07T11:08:08.720Z,100558.80
2022-08-07T11:11:06.164Z,100564.89
2022-08-07T11:14:46.080Z,100559.34
2022-08-07T11:16:54.660Z,100558.80
2022-08-07T11:20:05.040Z,100553.76
2022-08-07T11:22:51.106Z,100549.98
2022-08-07T11:25:36.249Z,100548.38
2022-08-07T11:28:27.004Z,100556.02
2022-08-07T11:31:27.081Z,100556.23
2022-08-07T11:34:10.267Z,100562.28
2022-08-07T11:37:24.338Z,100566.45
2022-08-07T11:40:14.915Z,100572.15
2022-08-07T11:43:54.524Z,100580.66
2022-08-07T11:47:13.902Z,100581.51
2022-08-07T11:50:31.508Z,100590.74
2022-08-07T11:53:05.142Z,100589.77
2022-08-07T11:56:25.959Z,100593.27
2022-08-07T11:59:22.216Z,100591.80
2022-08-07T12:02:30.457Z,100587.11
2022-08-07T12:05:49.582Z,100598.87
2022-08-07T12:08:38.296Z,100600.40
2022-08-07T12:11:22.424Z,100604.64
2022-08-07T12:13:53.587Z,100605.91
2022-08-07T12:16:30.849Z,100612.00
2022-08-07T12:19:35.632Z,100615.44
2022-08-07T12:22:39.415Z,100608.92
2022-08-07T12:26:21.687Z,100611.49
2022-08-07T12:29:38.032Z,100616.21
2022-08-07T12:32:38.642Z,100605.83
2022-08-07T12:35:13.840Z,100608.42
2022-08-07T12:38:11.749Z,100614.73
2022-08-07T12:40:48.592Z,100612.80
2022-08-07T12:44:01.850Z,100610.61
2022-08-07T12:46:47.788Z,100614.92
2022-08-07T12:49:51.199Z,100615.25
2022-08-07T12:52:35.611Z,100619.10
2022-08-07T12:55:17.897Z,100623.88
2022-08-07T12:58:00.854Z,100624.77
2022-08-07T13:01:28.207Z,100625.05
2022-08-07T13:04:32.647Z,100622.22
2022-08-07T13:08:14.298Z,100619.73
2022-08-07T13:10:40.868Z,100618.49
2022-08-07T13:13:48.443Z,100618.55
2022-08-07T13:16:23.552Z,100607.48
2022-08-07T13:19:45.896Z,100607.86
2022-08-07T13:22:32.396Z,100604.05
2022-08-07T13:25:05.963Z,100609.55
2022-08-07T13:28:11.127Z,100606.07
2022-08-07T13:30:52.351Z,100601.96
2022-08-07T13:34:31.829Z,100602.70
2022-08-07T13:36:45.509Z,100601.05
2022-08-07T13:40:35.265Z,100608.81
2022-08-07T13:42:51.560Z,100607.69
2022-08-07T13:46:11.226Z,100598.60
2022-08-07T13:48:27.779Z,100598.29
2022-08-07T13:51:27.705Z,100598.33
2022-08-07T13:54:01.478Z,100604.86
2022-08-07T13:56:35.459Z,100601.11
2022-08-07T13:59:20.513Z,100597.70
2022-08-07T14:02:13.419Z,100602.56
2022-08-07T14:04:50.085Z,100592.05
2022-08-07T14:07:23.965Z,100598.89
2022-08-07T14:10:17.781Z,100598.41
2022-08-07T14:13:03.743Z,100587.33
2022-08-07T14:15:43.075Z,100589.75
2022-08-07T14:18:28.393Z,100587.15
2022-08-07T14:22:00.654Z,100584.48
2022-08-07T14:24:24.534Z,100580.73
2022-08-07T14:28:09.520Z,100590.71
2022-08-07T14:30:11.967Z,100587.42
2022-08-07T14:32:55.953Z,100591.89
2022-08-07T14:35:45.124Z,100580.63
2022-08-07T14:38:26.400Z,100589.79
2022-08-07T14:41:04.350Z,100588.96
2022-08-07T14:43:57.321Z,100579.31
2022-08-07T14:46:31.961Z,100582.73
2022-08-07T14:49:17.427Z,100584.73
2022-08-07T14:52:02.954Z,100584.80
2022-08-07T14:54:42.107Z,100581.19
2022-08-07T14:57:58.167Z,100580.54
2022-08-07T15:00:30.220Z,100584.95
2022-08-07T15:03:16.566Z,100582.42
2022-08-07T15:05:54.970Z,100582.05
2022-08-07T15:08:50.328Z,100582.57
2022-08-07T15:11:53.250Z,100585.33
2022-08-07T15:14:30.699Z,100582.59
2022-08-07T15:17:14.004Z,100577.73
2022-08-07T15:20:33.339Z,100581.90
2022-08-07T15:22:55.177Z,100585.97
2022-08-07T15:25:36.987Z,100586.13
2022-08-07T15:28:31.664Z,100585.03
2022-08-07T15:31:07.481Z,100589.15
2022-08-07T15:37:03.460Z,100588.80
2022-08-07T15:39:25.693Z,100593.28
2022-08-07T15:42:45.202Z,100596.31
2022-08-07T15:44:53.418Z,100598.18
2022-08-07T15:50:37.741Z,100604.81
2022-08-07T15:53:14.793Z,100607.77
2022-08-07T15:55:53.804Z,100606.38
2022-08-07T15:58:54.070Z,100600.27
2022-08-07T16:01:39.662Z,100608.95
2022-08-07T16:04:15.060Z,100611.53
2022-08-07T16:06:56.590Z,100616.39
2022-08-07T16:09:53.985Z,100622.01
2022-08-07T16:13:00.943Z,100626.17
2022-08-07T16:15:58.177Z,100621.10
2022-08-07T16:18:50.219Z,100621.34
2022-08-07T16:22:03.481Z,100621.30
2022-08-07T16:25:02.540Z,100626.55
2022-08-07T16:28:09.365Z,100633.08
2022-08-07T16:31:51.845Z,100630.98
2022-08-07T16:34:48.383Z,100638.65
2022-08-07T16:38:06.471Z,100639.67
2022-08-07T16:41:08.270Z,100643.43
2022-08-07T16:44:47.419Z,100651.56
2022-08-07T16:48:13.574Z,100659.07
2022-08-07T16:51:57.627Z,100668.72
2022-08-07T16:54:55.116Z,100671.15
2022-08-07T16:58:01.726Z,100679.09
2022-08-07T17:00:45.432Z,100679.50
2022-08-07T17:03:47.333Z,100679.50
2022-08-07T17:07:09.654Z,100686.86
2022-08-07T17:10:07.049Z,100691.77
2022-08-07T17:12:53.020Z,100695.59
2022-08-07T17:15:52.307Z,100700.85
2022-08-07T17:18:41.002Z,100713.74
2022-08-07T17:21:23.060Z,100717.81
2022-08-07T17:24:04.336Z,100723.98
2022-08-07T17:26:51.069Z,100732.34
2022-08-07T17:30:15.157Z,100737.89
2022-08-07T17:32:52.788Z,100741.35
2022-08-07T17:36:13.648Z,100746.63
2022-08-07T17:38:57.143Z,100750.94
2022-08-07T17:42:04.316Z,100750.89
2022-08-07T17:44:45.267Z,100756.09
2022-08-07T17:47:43.687Z,100761.36
2022-08-07T17:50:47.479Z,100762.66
2022-08-07T17:54:02.171Z,100768.64
2022-08-07T17:56:52.609Z,100777.02
2022-08-07T17:59:42.385Z,100787.69
2022-08-07T18:02:33.102Z,100789.11
2022-08-07T18:05:21.193Z,100790.36
2022-08-07T18:08:16.464Z,100794.70
2022-08-07T18:12:06.698Z,100796.33
2022-08-07T18:14:40.030Z,100803.45
2022-08-07T18:18:47.501Z,100806.91
2022-08-07T18:21:03.993Z,100809.89
2022-08-07T18:23:57.112Z,100813.91
2022-08-07T18:27:06.984Z,100822.13
2022-08-07T18:30:31.440Z,100826.29
2022-08-07T18:33:55.646Z,100828.58
2022-08-07T18:37:13.730Z,100822.77
2022-08-07T18:40:42.818Z,100828.27
2022-08-07T18:43:48.997Z,100835.23
2022-08-07T18:46:42.852Z,100849.06
2022-08-07T18:50:35.236Z,100852.99
2022-08-07T18:52:53.357Z,100857.14
2022-08-07T18:55:57.879Z,100856.52
2022-08-07T18:59:01.388Z,100860.29
2022-08-07T19:02:18.708Z,100857.85
2022-08-07T19:05:17.747Z,100859.06
2022-08-07T19:08:06.402Z,100851.95
2022-08-07T19:10:52.638Z,100866.36
2022-08-07T19:13:46.287Z,100860.23
2022-08-07T19:17:59.259Z,100863.87
2022-08-07T19:20:29.763Z,100868.59
2022-08-07T19:23:57.276Z,100873.42
2022-08-07T19:26:29.087Z,100876.06
2022-08-07T19:31:00.622Z,100875.88
2022-08-07T19:32:18.696Z,100875.23
2022-08-07T19:34:57.356Z,100876.34
2022-08-07T19:37:47.269Z,100877.38
2022-08-07T19:40:31.571Z,100880.95
2022-08-07T19:43:21.959Z,100879.36
2022-08-07T19:46:09.351Z,100879.84
2022-08-07T19:48:53.800Z,100882.16
2022-08-07T19:51:51.946Z,100880.66
2022-08-07T19:54:35.358Z,100874.44
2022-08-07T19:58:01.223Z,100877.17
2022-08-07T20:00:27.896Z,100873.98
2022-08-07T20:03:03.790Z,100875.63
2022-08-07T20:05:59.549Z,100878.96
2022-08-07T20:08:30.242Z,100883.34
2022-08-07T20:11:23.043Z,100878.64
2022-08-07T20:14:05.069Z,100871.09
2022-08-07T20:16:37.144Z,100877.14
2022-08-07T20:19:10.061Z,100882.81
2022-08-07T20:21:47.486Z,100881.38
2022-08-07T20:24:31.761Z,100880.23
2022-08-07T20:27:03.537Z,100885.11
2022-08-07T20:29:48.312Z,100887.82
2022-08-07T20:32:41.944Z,100884.41
2022-08-07T20:35:25.314Z,100881.92
2022-08-07T20:37:59.283Z,100885.35
2022-08-07T20:40:34.676Z,100889.04
2022-08-07T20:43:14.489Z,100881.63
2022-08-07T20:46:29.880Z,100879.16
2022-08-07T20:48:57.889Z,100874.77
2022-08-07T20:51:35.892Z,100879.63
2022-08-07T20:54:15.183Z,100879.66
2022-08-07T20:57:04.054Z,100884.06
2022-08-07T21:00:08.065Z,100885.29
2022-08-07T21:02:53.904Z,100879.55
2022-08-07T21:05:58.477Z,100879.80
2022-08-07T21:08:40.710Z,100879.10
2022-08-07T21:11:40.137Z,100879.63
2022-08-07T21:14:34.197Z,100882.81
2022-08-07T21:18:02.995Z,100885.01
2022-08-07T21:20:06.330Z,100878.63
2022-08-07T21:22:51.183Z,100887.46
2022-08-07T21:25:56.182Z,100885.41
2022-08-07T21:28:59.685Z,100890.36
2022-08-07T21:31:49.589Z,100887.82
2022-08-07T21:34:46.042Z,100884.00
2022-08-07T21:37:57.850Z,100881.27
2022-08-07T21:40:41.707Z,100878.90
2022-08-07T21:43:47.417Z,100881.05
2022-08-07T21:46:47.716Z,100875.86
2022-08-07T21:49:40.790Z,100886.33
2022-08-07T21:53:08.477Z,100884.42
2022-08-07T21:56:16.668Z,100882.19
2022-08-07T21:59:22.258Z,100883.06
2022-08-07T22:02:11.246Z,100883.88
2022-08-07T22:04:53.782Z,100885.31
2022-08-07T22:07:35.583Z,100889.77
2022-08-07T22:10:28.102Z,100886.91
2022-08-07T22:13:09.410Z,100888.96
2022-08-07T22:16:42.500Z,100891.50
2022-08-07T22:19:29.224Z,100889.27
2022-08-07T22:22:29.153Z,100890.64
2022-08-07T22:25:49.473Z,100892.48
2022-08-07T22:28:33.789Z,100887.86
2022-08-07T22:31:59.391Z,100889.86
2022-08-07T22:34:35.611Z,100899.98
2022-08-07T22:38:01.813Z,100900.72
2022-08-07T22:41:03.268Z,100903.66
2022-08-07T22:43:57.564Z,100906.59
2022-08-07T22:47:03.471Z,100908.83
2022-08-07T22:49:51.906Z,100912.80
2022-08-07T22:52:39.973Z,100911.54
2022-08-07T22:55:30.111Z,100910.17
2022-08-07T22:58:32.088Z,100907.14
2022-08-07T23:01:49.921Z,100904.81
2022-08-07T23:06:06.830Z,100911.20
2022-08-07T23:08:30.058Z,100918.44
2022-08-07T23:11:23.466Z,100917.95
2022-08-07T23:14:19.740Z,100912.23
2022-08-07T23:16:59.066Z,100913.73
2022-08-07T23:20:07.633Z,100916.12
2022-08-07T23:23:01.501Z,100914.99
2022-08-07T23:25:56.684Z,100918.34
2022-08-07T23:29:43.758Z,100910.35
2022-08-07T23:34:34.504Z,100910.69
2022-08-07T23:36:30.016Z,100906.31
2022-08-07T23:39:16.337Z,100904.55
2022-08-07T23:42:04.838Z,100901.92
2022-08-07T23:46:01.407Z,100901.60
2022-08-07T23:48:28.202Z,100905.44
2022-08-07T23:52:58.928Z,100902.50
2022-08-07T23:54:52.125Z,100897.65
2022-08-07T23:57:44.802Z,100901.64
